Hovedside
METAR-TAF:

METAR-TAF

Lufthavner :

Mahajanga, Madagaskar

breddegrad: 15-40S, lengdegrad: 046-21E, høyde over havet: 26 m

Gjeldene værobservasjon

Denne rapporten ble laget for 49 minutter siden, klokken 03:00 UTC
Vind 6 kt fra Øst
Temperatur 25°C
Luftfuktighet 94%
Trykk 1011 hPa
Sikt 10 km eller mer
Få skyer i en høyde av 2000 ft, Bygeskyer.
Spredte skyer i en høyde av 4000 ft

METAR: FMNM 290300Z 08006KT 9999 FEW020CB SCT040 25/24 9999 Q1011 NOSIG

Tid: 06:49 (03:49 UTC)

Varsel

Denne rapporten ble laget for 4 timer og 49 minutter siden, klokken 23:00 UTC
Varsel gyldig fra 29. klokken 00 UTC til 29. klokken 24 UTC
Vind 5 kt fra Øst
Sikt 10 km eller mer
Spredte skyer i en høyde av 2000 ft
Blir
fra 29. klokken 10 UTC til 29. klokken 12 UTC
Vind 10 kt fra Nordvest
Spredte skyer i en høyde av 2000 ft, Bygeskyer.
Blir
fra 29. klokken 16 UTC til 29. klokken 18 UTC
Vind 6 kt fra Sørvest

TAF: FMNM 282300Z 2900/2924 10005KT 9999 SCT020 BECMG 2910/2912 32010KT SCT020CB BECMG 2916/2918 22006KT

Værobservasjoner og værvarsel for over 4000 flyplasser (METAR- og TAF-rapporter).

Tilgjengelige stasjoner er representert av de røde og gule prikkene på kartet.

Hold musepekeren over prikken for å se navnet på stasjonen.

Klikk så for å se værobservasjoner og -varsler.

For å forandre kartet kan du klikke på den grønne knappen med svart kryss for å zoome inn, på den grønne knappen med strek for å zoome ut, eller på de grønne pilene for å se tilstøtende kart.


METAR-TAF: